createdAt,value
2022-10-11T16:36:30.589Z,2.87
2022-10-11T16:38:59.609Z,3.60
2022-10-11T16:41:26.379Z,2.57
2022-10-11T16:43:54.805Z,2.77
2022-10-11T16:46:21.656Z,3.13
2022-10-11T16:48:48.883Z,2.53
2022-10-11T16:51:15.933Z,3.20
2022-10-11T16:53:42.823Z,3.63
2022-10-11T16:56:11.898Z,3.80
2022-10-11T16:58:38.742Z,4.03
2022-10-11T17:01:10.562Z,13.73
2022-10-11T17:03:37.754Z,7.93
2022-10-11T17:06:06.025Z,7.70
2022-10-11T17:08:33.176Z,9.23
2022-10-11T17:11:00.379Z,8.53
2022-10-11T17:13:27.285Z,7.50
2022-10-11T17:15:54.309Z,7.90
2022-10-11T17:18:21.095Z,5.83
2022-10-11T17:20:48.118Z,4.73
2022-10-11T17:23:15.004Z,4.30
2022-10-11T17:25:46.564Z,6.87
2022-10-11T17:28:13.625Z,6.00
2022-10-11T17:30:41.974Z,6.00
2022-10-11T17:33:09.301Z,4.10
2022-10-11T17:35:36.357Z,4.43
2022-10-11T17:38:06.322Z,3.77
2022-10-11T17:40:33.610Z,6.20
2022-10-11T17:43:00.399Z,5.70
2022-10-11T17:45:27.432Z,5.33
2022-10-11T17:47:54.168Z,5.73
2022-10-11T17:50:21.097Z,5.20
2022-10-11T17:52:48.019Z,5.80
2022-10-11T17:55:15.085Z,5.23
2022-10-11T17:57:42.447Z,5.10
2022-10-11T18:00:10.049Z,3.97
2022-10-11T18:02:40.081Z,4.23
2022-10-11T18:05:08.271Z,6.00
2022-10-11T18:07:35.038Z,6.40
2022-10-11T18:10:02.391Z,15.73
2022-10-11T18:12:30.086Z,22.00
2022-10-11T18:14:57.129Z,17.27
2022-10-11T18:17:23.921Z,22.67
2022-10-11T18:19:50.721Z,17.43
2022-10-11T18:22:17.688Z,10.53
2022-10-11T18:24:44.463Z,11.53
2022-10-11T18:27:11.269Z,13.80
2022-10-11T18:29:38.402Z,24.97
2022-10-11T18:32:05.325Z,17.00
2022-10-11T18:34:32.534Z,8.70
2022-10-11T18:36:59.419Z,6.80
2022-10-11T18:39:26.441Z,5.90
2022-10-11T18:41:53.587Z,5.23
2022-10-11T18:44:20.656Z,6.33
2022-10-11T18:46:48.315Z,4.00
2022-10-11T18:49:15.187Z,6.13
2022-10-11T18:51:42.857Z,7.80
2022-10-11T18:54:13.937Z,5.73
2022-10-11T18:56:43.920Z,4.27
2022-10-11T18:59:10.836Z,4.53
2022-10-11T19:01:41.096Z,4.03
2022-10-11T19:04:09.637Z,3.40
2022-10-11T19:06:43.014Z,5.00
2022-10-11T19:09:21.661Z,5.27
2022-10-11T19:11:53.647Z,4.77
2022-10-11T19:14:23.238Z,4.10
2022-10-11T19:16:51.504Z,5.73
2022-10-11T19:19:20.924Z,4.47
2022-10-11T19:21:48.795Z,4.50
2022-10-11T19:24:17.870Z,5.30
2022-10-11T19:26:45.493Z,5.13
2022-10-11T19:29:16.631Z,4.97
2022-10-11T19:31:46.534Z,5.97
2022-10-11T19:34:14.424Z,5.47
2022-10-11T19:36:42.787Z,5.23
2022-10-11T19:39:17.675Z,7.27
2022-10-11T19:41:45.172Z,6.77
2022-10-11T19:44:13.183Z,6.00
2022-10-11T19:46:55.933Z,6.17
2022-10-11T19:49:25.752Z,6.37
2022-10-11T19:51:53.717Z,7.87
2022-10-11T19:54:20.584Z,8.27
2022-10-11T19:56:48.332Z,8.40
2022-10-11T19:59:15.598Z,7.40
2022-10-11T20:01:45.516Z,6.87
2022-10-11T20:04:33.063Z,8.03
2022-10-11T20:07:01.902Z,6.53
2022-10-11T20:09:30.298Z,6.80
2022-10-11T20:11:58.288Z,6.47
2022-10-11T20:14:25.314Z,7.03
2022-10-11T20:16:52.441Z,6.33
2022-10-11T20:19:19.585Z,6.57
2022-10-11T20:21:47.579Z,6.80
2022-10-11T20:24:14.430Z,6.03
2022-10-11T20:26:41.386Z,5.97
2022-10-11T20:29:08.352Z,6.37
2022-10-11T20:31:40.713Z,6.27
2022-10-11T20:34:07.813Z,6.60
2022-10-11T20:36:36.355Z,6.63
2022-10-11T20:39:05.154Z,5.20
2022-10-11T20:41:39.616Z,5.70
2022-10-11T20:44:07.578Z,5.83
2022-10-11T20:46:37.467Z,5.63
2022-10-11T20:49:10.412Z,4.63
2022-10-11T20:51:38.926Z,9.93
2022-10-11T20:54:06.167Z,9.47
2022-10-11T20:56:33.920Z,8.73
2022-10-11T20:59:01.410Z,7.80
2022-10-11T21:01:31.213Z,6.57
2022-10-11T21:03:59.956Z,6.30
2022-10-11T21:06:28.110Z,6.20
2022-10-11T21:08:56.559Z,7.23
2022-10-11T21:11:27.750Z,7.17
2022-10-11T21:13:56.306Z,5.43
2022-10-11T21:16:23.390Z,7.20
2022-10-11T21:18:52.001Z,7.03
2022-10-11T21:21:19.435Z,7.37
2022-10-11T21:23:46.961Z,6.53
2022-10-11T21:26:17.917Z,7.20
2022-10-11T21:28:46.394Z,6.30
2022-10-11T21:31:15.889Z,5.80
2022-10-11T21:33:43.717Z,6.40
2022-10-11T21:36:30.741Z,6.60
2022-10-11T21:38:57.722Z,6.63
2022-10-11T21:41:26.388Z,5.50
2022-10-11T21:43:53.319Z,5.47
2022-10-11T21:46:23.108Z,6.17
2022-10-11T21:48:50.500Z,6.27
2022-10-11T21:51:22.428Z,7.57
2022-10-11T21:53:50.318Z,6.90
2022-10-11T21:56:17.369Z,6.97
2022-10-11T21:58:47.053Z,6.87
2022-10-11T22:01:14.234Z,7.17
2022-10-11T22:03:41.116Z,6.47
2022-10-11T22:06:07.968Z,5.97
2022-10-11T22:08:34.819Z,6.30
2022-10-11T22:11:02.497Z,6.43
2022-10-11T22:13:31.263Z,6.97
2022-10-11T22:16:02.025Z,6.00
2022-10-11T22:18:33.298Z,6.70
2022-10-11T22:21:06.611Z,7.00
2022-10-11T22:23:34.083Z,7.57
2022-10-11T22:26:09.499Z,6.90
2022-10-11T22:28:36.671Z,7.10
2022-10-11T22:31:05.534Z,6.73
2022-10-11T22:33:32.915Z,7.67
2022-10-11T22:36:02.570Z,6.07
2022-10-11T22:38:29.743Z,6.03
2022-10-11T22:40:59.780Z,6.70
2022-10-11T22:43:26.922Z,6.20
2022-10-11T22:45:53.681Z,6.30
2022-10-11T22:48:20.448Z,6.40
2022-10-11T22:50:47.605Z,6.63
2022-10-11T22:53:15.057Z,6.60
2022-10-11T22:55:41.910Z,6.90
2022-10-11T22:58:09.462Z,6.53
2022-10-11T23:00:36.627Z,6.77
2022-10-11T23:03:04.068Z,6.53
2022-10-11T23:05:30.956Z,6.20
2022-10-11T23:07:57.717Z,6.57
2022-10-11T23:10:24.476Z,6.77
2022-10-11T23:12:51.451Z,6.70
2022-10-11T23:15:18.341Z,8.10
2022-10-11T23:17:45.167Z,9.17
2022-10-11T23:20:12.081Z,10.97
2022-10-11T23:22:38.899Z,8.10
2022-10-11T23:25:06.279Z,9.20
2022-10-11T23:27:33.247Z,10.00
2022-10-11T23:30:00.049Z,9.53
2022-10-11T23:32:26.869Z,8.87
2022-10-11T23:34:53.826Z,10.50
2022-10-11T23:37:20.904Z,8.13
2022-10-11T23:39:47.684Z,7.87
2022-10-11T23:42:14.615Z,7.80
2022-10-11T23:44:41.341Z,7.77
2022-10-11T23:47:08.179Z,7.77
2022-10-11T23:49:35.143Z,8.57
2022-10-11T23:52:01.943Z,8.57
2022-10-11T23:54:28.741Z,8.73
2022-10-11T23:56:55.711Z,7.67
2022-10-11T23:59:22.458Z,7.63
